sensor_id;sensor_type;location;lat;lon;timestamp;temperature;humidity
58153;DHT22;43967;51.634;5.566;2023-01-23T00:02:55;17.00;58.30
58153;DHT22;43967;51.634;5.566;2023-01-23T00:07:57;17.00;58.20
58153;DHT22;43967;51.634;5.566;2023-01-23T00:12:58;17.00;58.20
58153;DHT22;43967;51.634;5.566;2023-01-23T00:17:59;17.00;58.10
58153;DHT22;43967;51.634;5.566;2023-01-23T00:23:00;16.90;58.00
58153;DHT22;43967;51.634;5.566;2023-01-23T00:28:01;17.00;58.10
58153;DHT22;43967;51.634;5.566;2023-01-23T00:33:02;16.90;58.00
58153;DHT22;43967;51.634;5.566;2023-01-23T00:38:03;16.90;57.90
58153;DHT22;43967;51.634;5.566;2023-01-23T00:43:04;16.90;57.80
58153;DHT22;43967;51.634;5.566;2023-01-23T00:48:05;16.90;57.80
58153;DHT22;43967;51.634;5.566;2023-01-23T00:53:07;16.90;57.70
58153;DHT22;43967;51.634;5.566;2023-01-23T00:58:08;16.90;57.60
58153;DHT22;43967;51.634;5.566;2023-01-23T01:03:09;16.90;57.60
58153;DHT22;43967;51.634;5.566;2023-01-23T01:08:10;16.90;57.60
58153;DHT22;43967;51.634;5.566;2023-01-23T01:13:11;16.90;57.60
58153;DHT22;43967;51.634;5.566;2023-01-23T01:18:13;16.90;57.50
58153;DHT22;43967;51.634;5.566;2023-01-23T01:23:14;16.90;57.40
58153;DHT22;43967;51.634;5.566;2023-01-23T01:28:15;16.80;57.30
58153;DHT22;43967;51.634;5.566;2023-01-23T01:33:16;16.80;57.30
58153;DHT22;43967;51.634;5.566;2023-01-23T01:38:17;16.80;57.20
58153;DHT22;43967;51.634;5.566;2023-01-23T01:43:24;16.80;57.10
58153;DHT22;43967;51.634;5.566;2023-01-23T01:48:29;16.80;57.10
58153;DHT22;43967;51.634;5.566;2023-01-23T01:53:32;16.80;57.10
58153;DHT22;43967;51.634;5.566;2023-01-23T01:58:33;16.80;57.00
58153;DHT22;43967;51.634;5.566;2023-01-23T02:03:34;16.80;57.00
58153;DHT22;43967;51.634;5.566;2023-01-23T02:08:49;16.80;57.00
58153;DHT22;43967;51.634;5.566;2023-01-23T02:13:52;16.80;56.90
58153;DHT22;43967;51.634;5.566;2023-01-23T02:18:56;16.80;56.90
58153;DHT22;43967;51.634;5.566;2023-01-23T02:24:21;16.70;56.80
58153;DHT22;43967;51.634;5.566;2023-01-23T02:29:25;16.70;56.70
58153;DHT22;43967;51.634;5.566;2023-01-23T02:34:26;16.70;56.70
58153;DHT22;43967;51.634;5.566;2023-01-23T02:39:27;16.70;56.70
58153;DHT22;43967;51.634;5.566;2023-01-23T02:44:30;16.70;56.60
58153;DHT22;43967;51.634;5.566;2023-01-23T02:49:31;16.70;56.60
58153;DHT22;43967;51.634;5.566;2023-01-23T02:54:32;16.70;56.60
58153;DHT22;43967;51.634;5.566;2023-01-23T02:59:33;16.70;56.60
58153;DHT22;43967;51.634;5.566;2023-01-23T03:04:34;16.70;56.50
58153;DHT22;43967;51.634;5.566;2023-01-23T03:09:35;16.70;56.50
58153;DHT22;43967;51.634;5.566;2023-01-23T03:14:42;16.70;56.50
58153;DHT22;43967;51.634;5.566;2023-01-23T03:19:43;16.60;56.40
58153;DHT22;43967;51.634;5.566;2023-01-23T03:24:44;16.70;56.50
58153;DHT22;43967;51.634;5.566;2023-01-23T03:29:45;16.60;56.40
58153;DHT22;43967;51.634;5.566;2023-01-23T03:34:46;16.60;56.30
58153;DHT22;43967;51.634;5.566;2023-01-23T03:39:47;16.60;56.30
58153;DHT22;43967;51.634;5.566;2023-01-23T03:44:50;16.60;56.20
58153;DHT22;43967;51.634;5.566;2023-01-23T03:49:52;16.60;56.20
58153;DHT22;43967;51.634;5.566;2023-01-23T03:54:53;16.60;56.20
58153;DHT22;43967;51.634;5.566;2023-01-23T03:59:54;16.60;56.10
58153;DHT22;43967;51.634;5.566;2023-01-23T04:04:55;16.60;56.10
58153;DHT22;43967;51.634;5.566;2023-01-23T04:09:57;16.60;56.10
58153;DHT22;43967;51.634;5.566;2023-01-23T04:14:57;16.60;56.00
58153;DHT22;43967;51.634;5.566;2023-01-23T04:19:59;16.60;56.00
58153;DHT22;43967;51.634;5.566;2023-01-23T04:25:00;16.60;56.00
58153;DHT22;43967;51.634;5.566;2023-01-23T04:30:01;16.60;56.00
58153;DHT22;43967;51.634;5.566;2023-01-23T04:35:02;16.60;56.00
58153;DHT22;43967;51.634;5.566;2023-01-23T04:40:03;16.60;56.00
58153;DHT22;43967;51.634;5.566;2023-01-23T04:45:06;16.50;55.90
58153;DHT22;43967;51.634;5.566;2023-01-23T04:50:07;16.50;55.80
58153;DHT22;43967;51.634;5.566;2023-01-23T04:55:09;16.50;55.80
58153;DHT22;43967;51.634;5.566;2023-01-23T05:00:10;16.50;55.80
58153;DHT22;43967;51.634;5.566;2023-01-23T05:05:11;16.50;55.80
58153;DHT22;43967;51.634;5.566;2023-01-23T05:10:13;16.50;55.80
58153;DHT22;43967;51.634;5.566;2023-01-23T05:15:15;16.50;55.70
58153;DHT22;43967;51.634;5.566;2023-01-23T05:20:16;16.50;55.70
58153;DHT22;43967;51.634;5.566;2023-01-23T05:25:19;16.50;55.70
58153;DHT22;43967;51.634;5.566;2023-01-23T05:30:22;16.50;55.70
58153;DHT22;43967;51.634;5.566;2023-01-23T05:35:23;16.50;55.70
58153;DHT22;43967;51.634;5.566;2023-01-23T05:40:24;16.40;55.60
58153;DHT22;43967;51.634;5.566;2023-01-23T05:45:25;16.50;55.80
58153;DHT22;43967;51.634;5.566;2023-01-23T05:50:26;16.50;56.10
58153;DHT22;43967;51.634;5.566;2023-01-23T05:55:27;16.50;56.30
58153;DHT22;43967;51.634;5.566;2023-01-23T06:00:28;16.50;56.70
58153;DHT22;43967;51.634;5.566;2023-01-23T06:05:29;16.50;56.80
58153;DHT22;43967;51.634;5.566;2023-01-23T06:10:30;16.50;56.70
58153;DHT22;43967;51.634;5.566;2023-01-23T06:15:31;16.50;56.70
58153;DHT22;43967;51.634;5.566;2023-01-23T06:20:32;16.50;56.90
58153;DHT22;43967;51.634;5.566;2023-01-23T06:25:34;16.40;56.80
58153;DHT22;43967;51.634;5.566;2023-01-23T06:30:36;16.40;56.70
58153;DHT22;43967;51.634;5.566;2023-01-23T06:35:37;16.40;56.60
58153;DHT22;43967;51.634;5.566;2023-01-23T06:40:38;16.40;56.40
58153;DHT22;43967;51.634;5.566;2023-01-23T06:45:43;16.40;56.40
58153;DHT22;43967;51.634;5.566;2023-01-23T06:50:44;16.20;56.40
58153;DHT22;43967;51.634;5.566;2023-01-23T06:55:45;16.20;56.30
58153;DHT22;43967;51.634;5.566;2023-01-23T07:00:46;16.20;56.40
58153;DHT22;43967;51.634;5.566;2023-01-23T07:05:47;16.30;56.60
58153;DHT22;43967;51.634;5.566;2023-01-23T07:10:48;16.30;56.70
58153;DHT22;43967;51.634;5.566;2023-01-23T07:15:49;16.30;56.90
58153;DHT22;43967;51.634;5.566;2023-01-23T07:20:50;16.30;57.10
58153;DHT22;43967;51.634;5.566;2023-01-23T07:25:58;16.20;56.90
58153;DHT22;43967;51.634;5.566;2023-01-23T07:30:59;16.30;56.90
58153;DHT22;43967;51.634;5.566;2023-01-23T07:36:04;16.20;56.70
58153;DHT22;43967;51.634;5.566;2023-01-23T07:41:05;16.10;56.70
58153;DHT22;43967;51.634;5.566;2023-01-23T07:46:06;16.20;56.90
58153;DHT22;43967;51.634;5.566;2023-01-23T07:51:07;16.20;57.00
58153;DHT22;43967;51.634;5.566;2023-01-23T07:56:08;16.20;57.10
58153;DHT22;43967;51.634;5.566;2023-01-23T08:01:10;16.20;57.10
58153;DHT22;43967;51.634;5.566;2023-01-23T08:06:11;16.20;57.20
58153;DHT22;43967;51.634;5.566;2023-01-23T08:11:13;16.30;57.40
58153;DHT22;43967;51.634;5.566;2023-01-23T08:16:14;16.30;57.50
58153;DHT22;43967;51.634;5.566;2023-01-23T08:21:15;16.30;57.50
58153;DHT22;43967;51.634;5.566;2023-01-23T08:26:17;16.40;57.60
58153;DHT22;43967;51.634;5.566;2023-01-23T08:31:18;16.40;57.60
58153;DHT22;43967;51.634;5.566;2023-01-23T08:36:19;16.50;57.60
58153;DHT22;43967;51.634;5.566;2023-01-23T08:41:20;16.50;57.70
58153;DHT22;43967;51.634;5.566;2023-01-23T08:46:21;16.60;58.00
58153;DHT22;43967;51.634;5.566;2023-01-23T08:51:22;16.60;58.00
58153;DHT22;43967;51.634;5.566;2023-01-23T08:56:24;16.70;58.10
58153;DHT22;43967;51.634;5.566;2023-01-23T09:01:25;16.70;58.00
58153;DHT22;43967;51.634;5.566;2023-01-23T09:06:27;16.70;58.10
58153;DHT22;43967;51.634;5.566;2023-01-23T09:11:28;16.70;58.10
58153;DHT22;43967;51.634;5.566;2023-01-23T09:16:29;16.70;58.20
58153;DHT22;43967;51.634;5.566;2023-01-23T09:21:30;16.80;58.30
58153;DHT22;43967;51.634;5.566;2023-01-23T09:26:31;16.70;58.30
58153;DHT22;43967;51.634;5.566;2023-01-23T09:31:32;16.70;58.60
58153;DHT22;43967;51.634;5.566;2023-01-23T09:36:33;16.70;58.70
58153;DHT22;43967;51.634;5.566;2023-01-23T09:41:34;16.70;58.90
58153;DHT22;43967;51.634;5.566;2023-01-23T09:46:39;16.60;59.00
58153;DHT22;43967;51.634;5.566;2023-01-23T09:52:12;16.70;59.40
58153;DHT22;43967;51.634;5.566;2023-01-23T10:02:21;16.90;58.80
58153;DHT22;43967;51.634;5.566;2023-01-23T10:18:36;16.90;60.30
58153;DHT22;43967;51.634;5.566;2023-01-23T10:28:54;17.00;62.50
58153;DHT22;43967;51.634;5.566;2023-01-23T10:40:00;17.00;63.90
58153;DHT22;43967;51.634;5.566;2023-01-23T10:44:34;17.00;63.80
58153;DHT22;43967;51.634;5.566;2023-01-23T10:49:36;17.00;63.50
58153;DHT22;43967;51.634;5.566;2023-01-23T10:54:46;17.00;63.20
58153;DHT22;43967;51.634;5.566;2023-01-23T11:05:37;17.00;62.50
58153;DHT22;43967;51.634;5.566;2023-01-23T11:10:38;17.10;62.40
58153;DHT22;43967;51.634;5.566;2023-01-23T11:15:39;17.10;62.10
58153;DHT22;43967;51.634;5.566;2023-01-23T11:20:41;17.10;61.90
58153;DHT22;43967;51.634;5.566;2023-01-23T11:25:53;17.10;61.80
58153;DHT22;43967;51.634;5.566;2023-01-23T11:31:17;17.20;64.70
58153;DHT22;43967;51.634;5.566;2023-01-23T11:41:39;17.30;65.40
58153;DHT22;43967;51.634;5.566;2023-01-23T11:57:35;17.60;63.20
58153;DHT22;43967;51.634;5.566;2023-01-23T12:02:47;17.40;62.90
58153;DHT22;43967;51.634;5.566;2023-01-23T12:08:48;17.50;62.80
58153;DHT22;43967;51.634;5.566;2023-01-23T12:13:29;17.60;62.30
58153;DHT22;43967;51.634;5.566;2023-01-23T12:18:46;17.60;62.00
58153;DHT22;43967;51.634;5.566;2023-01-23T12:24:06;17.60;62.40
58153;DHT22;43967;51.634;5.566;2023-01-23T12:45:35;17.70;61.00
58153;DHT22;43967;51.634;5.566;2023-01-23T12:50:55;17.70;60.90
58153;DHT22;43967;51.634;5.566;2023-01-23T12:56:05;17.70;60.90
58153;DHT22;43967;51.634;5.566;2023-01-23T13:01:49;17.70;60.70
58153;DHT22;43967;51.634;5.566;2023-01-23T13:12:32;17.70;60.40
58153;DHT22;43967;51.634;5.566;2023-01-23T13:17:40;17.80;60.40
58153;DHT22;43967;51.634;5.566;2023-01-23T13:22:44;17.70;60.20
58153;DHT22;43967;51.634;5.566;2023-01-23T13:27:49;17.80;60.20
58153;DHT22;43967;51.634;5.566;2023-01-23T13:32:51;17.70;60.00
58153;DHT22;43967;51.634;5.566;2023-01-23T13:37:52;17.70;59.90
58153;DHT22;43967;51.634;5.566;2023-01-23T13:42:53;17.60;60.00
58153;DHT22;43967;51.634;5.566;2023-01-23T13:47:59;17.60;59.90
58153;DHT22;43967;51.634;5.566;2023-01-23T13:53:17;17.50;60.00
58153;DHT22;43967;51.634;5.566;2023-01-23T13:58:21;17.50;60.00
58153;DHT22;43967;51.634;5.566;2023-01-23T14:03:31;17.50;59.90
58153;DHT22;43967;51.634;5.566;2023-01-23T14:08:44;17.50;59.90
58153;DHT22;43967;51.634;5.566;2023-01-23T14:13:55;17.40;59.80
58153;DHT22;43967;51.634;5.566;2023-01-23T14:18:57;17.40;59.70
58153;DHT22;43967;51.634;5.566;2023-01-23T14:24:00;17.40;59.70
58153;DHT22;43967;51.634;5.566;2023-01-23T14:29:04;17.40;59.60
58153;DHT22;43967;51.634;5.566;2023-01-23T14:34:22;17.40;59.50
58153;DHT22;43967;51.634;5.566;2023-01-23T14:39:27;17.40;59.50
58153;DHT22;43967;51.634;5.566;2023-01-23T14:44:38;17.40;59.40
58153;DHT22;43967;51.634;5.566;2023-01-23T14:49:40;17.40;59.40
58153;DHT22;43967;51.634;5.566;2023-01-23T14:54:43;17.50;59.30
58153;DHT22;43967;51.634;5.566;2023-01-23T14:59:44;17.50;59.40
58153;DHT22;43967;51.634;5.566;2023-01-23T15:05:06;17.50;59.50
58153;DHT22;43967;51.634;5.566;2023-01-23T15:10:28;17.50;59.60
58153;DHT22;43967;51.634;5.566;2023-01-23T15:15:32;17.50;59.60
58153;DHT22;43967;51.634;5.566;2023-01-23T15:20:38;17.50;59.60
58153;DHT22;43967;51.634;5.566;2023-01-23T15:25:39;17.40;59.40
58153;DHT22;43967;51.634;5.566;2023-01-23T15:30:45;17.40;59.40
58153;DHT22;43967;51.634;5.566;2023-01-23T15:35:46;17.30;59.60
58153;DHT22;43967;51.634;5.566;2023-01-23T15:40:47;17.30;59.70
58153;DHT22;43967;51.634;5.566;2023-01-23T15:45:48;17.30;59.90
58153;DHT22;43967;51.634;5.566;2023-01-23T15:50:49;17.40;60.80
58153;DHT22;43967;51.634;5.566;2023-01-23T15:55:50;17.40;60.60
58153;DHT22;43967;51.634;5.566;2023-01-23T16:00:51;17.30;59.90
58153;DHT22;43967;51.634;5.566;2023-01-23T16:05:52;17.40;60.60
58153;DHT22;43967;51.634;5.566;2023-01-23T16:10:54;17.40;60.50
58153;DHT22;43967;51.634;5.566;2023-01-23T16:15:55;17.30;60.30
58153;DHT22;43967;51.634;5.566;2023-01-23T16:20:56;17.30;60.30
58153;DHT22;43967;51.634;5.566;2023-01-23T16:25:57;17.30;60.30
58153;DHT22;43967;51.634;5.566;2023-01-23T16:30:58;17.20;61.30
58153;DHT22;43967;51.634;5.566;2023-01-23T16:35:59;17.20;62.20
58153;DHT22;43967;51.634;5.566;2023-01-23T16:41:01;17.20;63.10
58153;DHT22;43967;51.634;5.566;2023-01-23T16:46:02;17.20;65.00
58153;DHT22;43967;51.634;5.566;2023-01-23T16:51:20;17.30;66.00
58153;DHT22;43967;51.634;5.566;2023-01-23T16:56:34;17.50;65.80
58153;DHT22;43967;51.634;5.566;2023-01-23T17:01:39;17.50;65.40
58153;DHT22;43967;51.634;5.566;2023-01-23T17:06:41;17.50;64.90
58153;DHT22;43967;51.634;5.566;2023-01-23T17:11:51;17.40;64.20
58153;DHT22;43967;51.634;5.566;2023-01-23T17:16:53;17.50;63.80
58153;DHT22;43967;51.634;5.566;2023-01-23T17:21:56;17.50;63.70
58153;DHT22;43967;51.634;5.566;2023-01-23T17:26:57;17.50;63.50
58153;DHT22;43967;51.634;5.566;2023-01-23T17:31:58;17.50;63.30
58153;DHT22;43967;51.634;5.566;2023-01-23T17:36:59;17.50;63.10
58153;DHT22;43967;51.634;5.566;2023-01-23T17:42:00;17.60;62.90
58153;DHT22;43967;51.634;5.566;2023-01-23T17:47:01;17.50;62.90
58153;DHT22;43967;51.634;5.566;2023-01-23T17:52:03;17.50;62.90
58153;DHT22;43967;51.634;5.566;2023-01-23T17:57:04;17.40;62.80
58153;DHT22;43967;51.634;5.566;2023-01-23T18:02:25;17.40;63.30
58153;DHT22;43967;51.634;5.566;2023-01-23T18:07:26;17.40;62.60
58153;DHT22;43967;51.634;5.566;2023-01-23T18:23:03;17.40;63.00
58153;DHT22;43967;51.634;5.566;2023-01-23T18:28:11;17.40;62.90
58153;DHT22;43967;51.634;5.566;2023-01-23T18:33:33;17.40;63.20
58153;DHT22;43967;51.634;5.566;2023-01-23T18:44:30;17.30;62.30
58153;DHT22;43967;51.634;5.566;2023-01-23T18:49:32;17.30;62.70
58153;DHT22;43967;51.634;5.566;2023-01-23T19:00:07;17.20;60.00
58153;DHT22;43967;51.634;5.566;2023-01-23T19:10:19;17.10;61.60
58153;DHT22;43967;51.634;5.566;2023-01-23T19:26:10;17.00;61.10
58153;DHT22;43967;51.634;5.566;2023-01-23T19:31:19;17.00;61.20
58153;DHT22;43967;51.634;5.566;2023-01-23T19:36:22;17.00;61.20
58153;DHT22;43967;51.634;5.566;2023-01-23T19:41:25;17.00;61.20
58153;DHT22;43967;51.634;5.566;2023-01-23T19:46:29;17.00;61.40
58153;DHT22;43967;51.634;5.566;2023-01-23T19:51:32;17.00;61.80
58153;DHT22;43967;51.634;5.566;2023-01-23T19:56:34;17.00;62.00
58153;DHT22;43967;51.634;5.566;2023-01-23T20:01:41;17.00;62.30
58153;DHT22;43967;51.634;5.566;2023-01-23T20:06:43;17.00;62.60
58153;DHT22;43967;51.634;5.566;2023-01-23T20:11:46;17.00;62.70
58153;DHT22;43967;51.634;5.566;2023-01-23T20:16:47;17.00;62.90
58153;DHT22;43967;51.634;5.566;2023-01-23T20:21:48;17.00;62.90
58153;DHT22;43967;51.634;5.566;2023-01-23T20:26:49;17.00;63.10
58153;DHT22;43967;51.634;5.566;2023-01-23T20:31:52;17.10;63.20
58153;DHT22;43967;51.634;5.566;2023-01-23T20:36:53;17.00;63.20
58153;DHT22;43967;51.634;5.566;2023-01-23T20:41:54;17.00;63.10
58153;DHT22;43967;51.634;5.566;2023-01-23T20:46:55;17.10;63.20
58153;DHT22;43967;51.634;5.566;2023-01-23T20:51:56;17.10;63.20
58153;DHT22;43967;51.634;5.566;2023-01-23T20:56:57;17.10;63.30
58153;DHT22;43967;51.634;5.566;2023-01-23T21:01:58;17.10;63.10
58153;DHT22;43967;51.634;5.566;2023-01-23T21:07:00;17.10;63.00
58153;DHT22;43967;51.634;5.566;2023-01-23T21:12:02;17.10;63.00
58153;DHT22;43967;51.634;5.566;2023-01-23T21:17:03;17.00;62.70
58153;DHT22;43967;51.634;5.566;2023-01-23T21:22:06;17.10;62.70
58153;DHT22;43967;51.634;5.566;2023-01-23T21:27:07;17.00;62.80
58153;DHT22;43967;51.634;5.566;2023-01-23T21:32:08;17.10;62.80
58153;DHT22;43967;51.634;5.566;2023-01-23T21:37:09;17.10;62.80
58153;DHT22;43967;51.634;5.566;2023-01-23T21:42:10;17.10;62.80
58153;DHT22;43967;51.634;5.566;2023-01-23T21:47:11;17.30;63.40
58153;DHT22;43967;51.634;5.566;2023-01-23T21:52:12;17.30;62.80
58153;DHT22;43967;51.634;5.566;2023-01-23T21:57:13;17.30;62.90
58153;DHT22;43967;51.634;5.566;2023-01-23T22:02:14;17.40;62.90
58153;DHT22;43967;51.634;5.566;2023-01-23T22:07:15;17.60;62.60
58153;DHT22;43967;51.634;5.566;2023-01-23T22:12:16;17.70;62.30
58153;DHT22;43967;51.634;5.566;2023-01-23T22:17:17;17.80;62.80
58153;DHT22;43967;51.634;5.566;2023-01-23T22:22:18;17.90;62.00
58153;DHT22;43967;51.634;5.566;2023-01-23T22:27:19;18.00;61.80
58153;DHT22;43967;51.634;5.566;2023-01-23T22:32:20;18.00;61.70
58153;DHT22;43967;51.634;5.566;2023-01-23T22:37:21;18.10;61.50
58153;DHT22;43967;51.634;5.566;2023-01-23T22:42:22;18.10;61.40
58153;DHT22;43967;51.634;5.566;2023-01-23T22:47:23;18.10;61.30
58153;DHT22;43967;51.634;5.566;2023-01-23T22:52:24;18.10;61.20
58153;DHT22;43967;51.634;5.566;2023-01-23T22:57:25;18.10;61.10
58153;DHT22;43967;51.634;5.566;2023-01-23T23:02:26;18.10;61.00
58153;DHT22;43967;51.634;5.566;2023-01-23T23:07:27;18.00;61.10
58153;DHT22;43967;51.634;5.566;2023-01-23T23:12:28;18.00;60.70
58153;DHT22;43967;51.634;5.566;2023-01-23T23:17:29;18.00;60.60
58153;DHT22;43967;51.634;5.566;2023-01-23T23:22:30;18.00;60.50
58153;DHT22;43967;51.634;5.566;2023-01-23T23:27:31;17.90;60.40
58153;DHT22;43967;51.634;5.566;2023-01-23T23:32:32;17.90;60.30
58153;DHT22;43967;51.634;5.566;2023-01-23T23:37:33;17.90;60.20
58153;DHT22;43967;51.634;5.566;2023-01-23T23:42:34;17.90;60.10
58153;DHT22;43967;51.634;5.566;2023-01-23T23:47:35;17.80;59.90
58153;DHT22;43967;51.634;5.566;2023-01-23T23:52:36;17.80;59.80
58153;DHT22;43967;51.634;5.566;2023-01-23T23:57:37;17.80;59.70
